sensor_id;sensor_type;location;lat;lon;timestamp;temperature;humidity
54124;DHT22;55741;53.252;5.788;2023-03-14T00:00:58;10.10;99.90
54124;DHT22;55741;53.252;5.788;2023-03-14T00:03:24;10.10;99.90
54124;DHT22;55741;53.252;5.788;2023-03-14T00:05:51;10.10;99.90
54124;DHT22;55741;53.252;5.788;2023-03-14T00:08:17;10.00;99.90
54124;DHT22;55741;53.252;5.788;2023-03-14T00:10:44;10.00;99.90
54124;DHT22;55741;53.252;5.788;2023-03-14T00:13:12;9.90;99.90
54124;DHT22;55741;53.252;5.788;2023-03-14T00:15:38;9.90;99.90
54124;DHT22;55741;53.252;5.788;2023-03-14T00:18:06;9.90;99.90
54124;DHT22;55741;53.252;5.788;2023-03-14T00:21:26;9.90;99.90
54124;DHT22;55741;53.252;5.788;2023-03-14T00:23:58;9.80;99.90
54124;DHT22;55741;53.252;5.788;2023-03-14T00:26:24;9.90;99.90
54124;DHT22;55741;53.252;5.788;2023-03-14T00:28:52;9.90;99.90
54124;DHT22;55741;53.252;5.788;2023-03-14T00:31:21;9.80;99.90
54124;DHT22;55741;53.252;5.788;2023-03-14T00:33:48;9.80;99.90
54124;DHT22;55741;53.252;5.788;2023-03-14T00:36:16;9.80;99.90
54124;DHT22;55741;53.252;5.788;2023-03-14T00:38:44;9.70;99.90
54124;DHT22;55741;53.252;5.788;2023-03-14T00:41:13;9.70;99.90
54124;DHT22;55741;53.252;5.788;2023-03-14T00:43:44;9.60;99.90
54124;DHT22;55741;53.252;5.788;2023-03-14T00:46:11;9.60;99.90
54124;DHT22;55741;53.252;5.788;2023-03-14T00:48:37;9.50;99.90
54124;DHT22;55741;53.252;5.788;2023-03-14T00:51:08;9.50;99.90
54124;DHT22;55741;53.252;5.788;2023-03-14T00:53:36;9.40;99.90
54124;DHT22;55741;53.252;5.788;2023-03-14T00:56:05;9.40;99.90
54124;DHT22;55741;53.252;5.788;2023-03-14T00:58:31;9.40;99.90
54124;DHT22;55741;53.252;5.788;2023-03-14T01:00:57;9.40;99.90
54124;DHT22;55741;53.252;5.788;2023-03-14T01:03:24;9.40;99.90
54124;DHT22;55741;53.252;5.788;2023-03-14T01:05:50;9.40;99.90
54124;DHT22;55741;53.252;5.788;2023-03-14T01:08:16;9.40;99.90
54124;DHT22;55741;53.252;5.788;2023-03-14T01:10:42;9.30;99.90
54124;DHT22;55741;53.252;5.788;2023-03-14T01:13:09;9.40;99.90
54124;DHT22;55741;53.252;5.788;2023-03-14T01:15:38;9.30;99.90
54124;DHT22;55741;53.252;5.788;2023-03-14T01:18:04;9.30;99.90
54124;DHT22;55741;53.252;5.788;2023-03-14T01:20:30;9.30;99.90
54124;DHT22;55741;53.252;5.788;2023-03-14T01:22:56;9.30;99.90
54124;DHT22;55741;53.252;5.788;2023-03-14T01:25:24;9.40;99.90
54124;DHT22;55741;53.252;5.788;2023-03-14T01:27:50;9.40;99.90
54124;DHT22;55741;53.252;5.788;2023-03-14T01:30:16;9.40;99.90
54124;DHT22;55741;53.252;5.788;2023-03-14T01:32:42;9.40;99.90
54124;DHT22;55741;53.252;5.788;2023-03-14T01:35:13;9.40;99.90
54124;DHT22;55741;53.252;5.788;2023-03-14T01:37:39;9.30;99.90
54124;DHT22;55741;53.252;5.788;2023-03-14T01:40:06;9.30;99.90
54124;DHT22;55741;53.252;5.788;2023-03-14T01:42:34;9.30;99.90
54124;DHT22;55741;53.252;5.788;2023-03-14T01:45:01;9.30;99.90
54124;DHT22;55741;53.252;5.788;2023-03-14T01:47:29;9.30;99.90
54124;DHT22;55741;53.252;5.788;2023-03-14T01:50:08;9.30;99.90
54124;DHT22;55741;53.252;5.788;2023-03-14T01:52:44;9.30;99.90
54124;DHT22;55741;53.252;5.788;2023-03-14T01:55:21;9.20;99.90
54124;DHT22;55741;53.252;5.788;2023-03-14T01:57:52;9.20;99.90
54124;DHT22;55741;53.252;5.788;2023-03-14T02:00:23;9.20;99.90
54124;DHT22;55741;53.252;5.788;2023-03-14T02:02:58;9.20;99.90
54124;DHT22;55741;53.252;5.788;2023-03-14T02:05:39;9.10;99.90
54124;DHT22;55741;53.252;5.788;2023-03-14T02:08:10;9.10;99.90
54124;DHT22;55741;53.252;5.788;2023-03-14T02:10:39;9.10;99.90
54124;DHT22;55741;53.252;5.788;2023-03-14T02:13:07;9.20;99.90
54124;DHT22;55741;53.252;5.788;2023-03-14T02:15:33;9.10;99.90
54124;DHT22;55741;53.252;5.788;2023-03-14T02:17:59;9.10;99.90
54124;DHT22;55741;53.252;5.788;2023-03-14T02:20:34;9.10;99.90
54124;DHT22;55741;53.252;5.788;2023-03-14T02:23:07;9.00;99.90
54124;DHT22;55741;53.252;5.788;2023-03-14T02:28:12;9.00;99.90
54124;DHT22;55741;53.252;5.788;2023-03-14T02:30:38;9.00;99.90
54124;DHT22;55741;53.252;5.788;2023-03-14T02:33:10;8.90;99.90
54124;DHT22;55741;53.252;5.788;2023-03-14T02:35:56;8.90;99.90
54124;DHT22;55741;53.252;5.788;2023-03-14T02:41:04;8.90;99.90
54124;DHT22;55741;53.252;5.788;2023-03-14T02:43:30;8.80;99.90
54124;DHT22;55741;53.252;5.788;2023-03-14T02:45:56;8.80;99.90
54124;DHT22;55741;53.252;5.788;2023-03-14T02:48:28;8.80;99.90
54124;DHT22;55741;53.252;5.788;2023-03-14T02:51:00;8.80;99.90
54124;DHT22;55741;53.252;5.788;2023-03-14T02:53:29;8.80;99.90
54124;DHT22;55741;53.252;5.788;2023-03-14T02:55:55;8.80;99.90
54124;DHT22;55741;53.252;5.788;2023-03-14T02:58:25;8.70;99.90
54124;DHT22;55741;53.252;5.788;2023-03-14T03:00:51;8.70;99.90
54124;DHT22;55741;53.252;5.788;2023-03-14T03:03:18;8.70;99.90
54124;DHT22;55741;53.252;5.788;2023-03-14T03:05:51;8.60;99.90
54124;DHT22;55741;53.252;5.788;2023-03-14T03:08:19;8.60;99.90
54124;DHT22;55741;53.252;5.788;2023-03-14T03:10:45;8.60;99.90
54124;DHT22;55741;53.252;5.788;2023-03-14T03:13:11;8.60;99.90
54124;DHT22;55741;53.252;5.788;2023-03-14T03:15:37;8.60;99.90
54124;DHT22;55741;53.252;5.788;2023-03-14T03:18:03;8.60;99.90
54124;DHT22;55741;53.252;5.788;2023-03-14T03:20:29;8.60;99.90
54124;DHT22;55741;53.252;5.788;2023-03-14T03:22:55;8.60;99.90
54124;DHT22;55741;53.252;5.788;2023-03-14T03:25:21;8.60;99.90
54124;DHT22;55741;53.252;5.788;2023-03-14T03:27:49;8.60;99.90
54124;DHT22;55741;53.252;5.788;2023-03-14T03:30:15;8.60;99.90
54124;DHT22;55741;53.252;5.788;2023-03-14T03:32:41;8.60;99.90
54124;DHT22;55741;53.252;5.788;2023-03-14T03:35:07;8.60;99.90
54124;DHT22;55741;53.252;5.788;2023-03-14T03:37:34;8.60;99.90
54124;DHT22;55741;53.252;5.788;2023-03-14T03:40:01;8.60;99.90
54124;DHT22;55741;53.252;5.788;2023-03-14T03:42:29;8.60;99.90
54124;DHT22;55741;53.252;5.788;2023-03-14T03:44:54;8.60;99.90
54124;DHT22;55741;53.252;5.788;2023-03-14T03:47:20;8.60;99.90
54124;DHT22;55741;53.252;5.788;2023-03-14T03:49:46;8.60;99.90
54124;DHT22;55741;53.252;5.788;2023-03-14T03:52:12;8.60;99.90
54124;DHT22;55741;53.252;5.788;2023-03-14T03:54:39;8.70;99.90
54124;DHT22;55741;53.252;5.788;2023-03-14T03:57:05;8.60;99.90
54124;DHT22;55741;53.252;5.788;2023-03-14T03:59:31;8.60;99.90
54124;DHT22;55741;53.252;5.788;2023-03-14T04:01:57;8.60;99.90
54124;DHT22;55741;53.252;5.788;2023-03-14T04:04:23;8.70;99.90
54124;DHT22;55741;53.252;5.788;2023-03-14T04:06:49;8.70;99.90
54124;DHT22;55741;53.252;5.788;2023-03-14T04:09:15;8.60;99.90
54124;DHT22;55741;53.252;5.788;2023-03-14T04:11:41;8.60;99.90
54124;DHT22;55741;53.252;5.788;2023-03-14T04:14:07;8.70;99.90
54124;DHT22;55741;53.252;5.788;2023-03-14T04:16:33;8.70;99.90
54124;DHT22;55741;53.252;5.788;2023-03-14T04:19:14;8.60;99.90
54124;DHT22;55741;53.252;5.788;2023-03-14T04:21:41;8.60;99.90
54124;DHT22;55741;53.252;5.788;2023-03-14T04:24:10;8.60;99.90
54124;DHT22;55741;53.252;5.788;2023-03-14T04:26:39;8.60;99.90
54124;DHT22;55741;53.252;5.788;2023-03-14T04:29:12;8.50;99.90
54124;DHT22;55741;53.252;5.788;2023-03-14T04:31:38;8.50;99.90
54124;DHT22;55741;53.252;5.788;2023-03-14T04:34:04;8.50;99.90
54124;DHT22;55741;53.252;5.788;2023-03-14T04:36:30;8.50;99.90
54124;DHT22;55741;53.252;5.788;2023-03-14T04:38:56;8.50;99.90
54124;DHT22;55741;53.252;5.788;2023-03-14T04:41:22;8.40;99.90
54124;DHT22;55741;53.252;5.788;2023-03-14T04:43:48;8.40;99.90
54124;DHT22;55741;53.252;5.788;2023-03-14T04:46:14;8.40;99.90
54124;DHT22;55741;53.252;5.788;2023-03-14T04:48:40;8.40;99.90
54124;DHT22;55741;53.252;5.788;2023-03-14T04:51:06;8.40;99.90
54124;DHT22;55741;53.252;5.788;2023-03-14T04:53:32;8.40;99.90
54124;DHT22;55741;53.252;5.788;2023-03-14T04:56:02;8.30;99.90
54124;DHT22;55741;53.252;5.788;2023-03-14T04:58:28;8.40;99.90
54124;DHT22;55741;53.252;5.788;2023-03-14T05:00:54;8.40;99.90
54124;DHT22;55741;53.252;5.788;2023-03-14T05:03:20;8.30;99.90
54124;DHT22;55741;53.252;5.788;2023-03-14T05:05:46;8.30;99.90
54124;DHT22;55741;53.252;5.788;2023-03-14T05:08:12;8.30;99.90
54124;DHT22;55741;53.252;5.788;2023-03-14T05:10:38;8.40;99.90
54124;DHT22;55741;53.252;5.788;2023-03-14T05:13:04;8.40;99.90
54124;DHT22;55741;53.252;5.788;2023-03-14T05:15:30;8.30;99.90
54124;DHT22;55741;53.252;5.788;2023-03-14T05:17:56;8.40;99.90
54124;DHT22;55741;53.252;5.788;2023-03-14T05:20:22;8.30;99.90
54124;DHT22;55741;53.252;5.788;2023-03-14T05:22:48;8.30;99.90
54124;DHT22;55741;53.252;5.788;2023-03-14T05:25:14;8.30;99.90
54124;DHT22;55741;53.252;5.788;2023-03-14T05:27:40;8.40;99.90
54124;DHT22;55741;53.252;5.788;2023-03-14T05:30:07;8.30;99.90
54124;DHT22;55741;53.252;5.788;2023-03-14T05:32:33;8.30;99.90
54124;DHT22;55741;53.252;5.788;2023-03-14T05:35:03;8.30;99.90
54124;DHT22;55741;53.252;5.788;2023-03-14T05:37:28;8.20;99.90
54124;DHT22;55741;53.252;5.788;2023-03-14T05:39:55;8.10;99.90
54124;DHT22;55741;53.252;5.788;2023-03-14T05:42:21;8.00;99.90
54124;DHT22;55741;53.252;5.788;2023-03-14T05:44:47;8.00;99.90
54124;DHT22;55741;53.252;5.788;2023-03-14T05:47:13;7.90;99.90
54124;DHT22;55741;53.252;5.788;2023-03-14T05:49:39;7.70;99.90
54124;DHT22;55741;53.252;5.788;2023-03-14T05:52:25;7.60;99.90
54124;DHT22;55741;53.252;5.788;2023-03-14T05:55:10;7.40;99.90
54124;DHT22;55741;53.252;5.788;2023-03-14T05:57:56;7.30;99.90
54124;DHT22;55741;53.252;5.788;2023-03-14T06:00:42;7.20;99.90
54124;DHT22;55741;53.252;5.788;2023-03-14T06:03:28;7.00;99.90
54124;DHT22;55741;53.252;5.788;2023-03-14T06:06:13;6.80;99.90
54124;DHT22;55741;53.252;5.788;2023-03-14T06:08:49;6.70;99.90
54124;DHT22;55741;53.252;5.788;2023-03-14T06:11:15;6.50;99.90
54124;DHT22;55741;53.252;5.788;2023-03-14T06:13:41;6.40;99.90
54124;DHT22;55741;53.252;5.788;2023-03-14T06:16:07;6.30;99.90
54124;DHT22;55741;53.252;5.788;2023-03-14T06:18:33;6.20;99.90
54124;DHT22;55741;53.252;5.788;2023-03-14T06:20:59;6.10;99.90
54124;DHT22;55741;53.252;5.788;2023-03-14T06:23:25;5.90;99.90
54124;DHT22;55741;53.252;5.788;2023-03-14T06:25:52;5.80;99.90
54124;DHT22;55741;53.252;5.788;2023-03-14T06:28:18;5.80;99.90
54124;DHT22;55741;53.252;5.788;2023-03-14T06:30:45;5.70;99.90
54124;DHT22;55741;53.252;5.788;2023-03-14T06:33:11;5.60;99.90
54124;DHT22;55741;53.252;5.788;2023-03-14T06:35:37;5.50;99.90
54124;DHT22;55741;53.252;5.788;2023-03-14T06:38:03;5.40;99.90
54124;DHT22;55741;53.252;5.788;2023-03-14T06:40:29;5.40;99.90
54124;DHT22;55741;53.252;5.788;2023-03-14T06:42:55;5.40;99.90
54124;DHT22;55741;53.252;5.788;2023-03-14T06:45:21;5.30;99.90
54124;DHT22;55741;53.252;5.788;2023-03-14T06:47:47;5.30;99.90
54124;DHT22;55741;53.252;5.788;2023-03-14T06:50:13;5.30;99.90
54124;DHT22;55741;53.252;5.788;2023-03-14T06:52:43;5.30;99.90
54124;DHT22;55741;53.252;5.788;2023-03-14T06:55:15;5.20;99.90
54124;DHT22;55741;53.252;5.788;2023-03-14T06:57:41;5.20;99.90
54124;DHT22;55741;53.252;5.788;2023-03-14T07:00:11;5.20;99.90
54124;DHT22;55741;53.252;5.788;2023-03-14T07:02:38;5.20;99.90
54124;DHT22;55741;53.252;5.788;2023-03-14T07:05:05;5.10;99.90
54124;DHT22;55741;53.252;5.788;2023-03-14T07:07:31;5.10;99.90
54124;DHT22;55741;53.252;5.788;2023-03-14T07:09:57;5.10;99.90
54124;DHT22;55741;53.252;5.788;2023-03-14T07:12:23;5.10;99.90
54124;DHT22;55741;53.252;5.788;2023-03-14T07:14:49;5.10;99.90
54124;DHT22;55741;53.252;5.788;2023-03-14T07:17:14;5.10;99.90
54124;DHT22;55741;53.252;5.788;2023-03-14T07:19:40;5.00;99.90
54124;DHT22;55741;53.252;5.788;2023-03-14T07:22:06;5.10;99.90
54124;DHT22;55741;53.252;5.788;2023-03-14T07:24:32;5.10;99.90
54124;DHT22;55741;53.252;5.788;2023-03-14T07:26:58;5.00;99.90
54124;DHT22;55741;53.252;5.788;2023-03-14T07:29:33;5.00;99.90
54124;DHT22;55741;53.252;5.788;2023-03-14T07:32:00;5.10;99.90
54124;DHT22;55741;53.252;5.788;2023-03-14T07:34:26;5.10;99.90
54124;DHT22;55741;53.252;5.788;2023-03-14T07:36:52;5.10;99.90
54124;DHT22;55741;53.252;5.788;2023-03-14T07:39:18;5.10;99.90
54124;DHT22;55741;53.252;5.788;2023-03-14T07:41:44;5.10;99.90
54124;DHT22;55741;53.252;5.788;2023-03-14T07:44:10;5.10;99.90
54124;DHT22;55741;53.252;5.788;2023-03-14T07:46:36;5.10;99.90
54124;DHT22;55741;53.252;5.788;2023-03-14T07:49:02;5.20;99.90
54124;DHT22;55741;53.252;5.788;2023-03-14T07:51:28;5.20;99.90
54124;DHT22;55741;53.252;5.788;2023-03-14T07:53:54;5.30;99.90
54124;DHT22;55741;53.252;5.788;2023-03-14T07:56:20;5.30;99.90
54124;DHT22;55741;53.252;5.788;2023-03-14T07:58:46;5.40;99.90
54124;DHT22;55741;53.252;5.788;2023-03-14T08:01:12;5.40;99.90
54124;DHT22;55741;53.252;5.788;2023-03-14T08:03:38;5.40;99.90
54124;DHT22;55741;53.252;5.788;2023-03-14T08:06:05;5.50;99.90
54124;DHT22;55741;53.252;5.788;2023-03-14T08:08:31;5.50;99.90
54124;DHT22;55741;53.252;5.788;2023-03-14T08:11:05;5.50;99.90
54124;DHT22;55741;53.252;5.788;2023-03-14T08:13:38;5.50;99.90
54124;DHT22;55741;53.252;5.788;2023-03-14T08:16:07;5.50;99.90
54124;DHT22;55741;53.252;5.788;2023-03-14T08:18:35;5.60;99.90
54124;DHT22;55741;53.252;5.788;2023-03-14T08:21:03;5.70;99.90
54124;DHT22;55741;53.252;5.788;2023-03-14T08:23:29;5.80;99.90
54124;DHT22;55741;53.252;5.788;2023-03-14T08:25:54;5.80;99.90
54124;DHT22;55741;53.252;5.788;2023-03-14T08:28:20;5.90;99.90
54124;DHT22;55741;53.252;5.788;2023-03-14T08:30:46;6.00;99.90
54124;DHT22;55741;53.252;5.788;2023-03-14T08:33:14;6.10;99.90
54124;DHT22;55741;53.252;5.788;2023-03-14T08:35:39;6.10;99.90
54124;DHT22;55741;53.252;5.788;2023-03-14T08:38:05;6.20;99.90
54124;DHT22;55741;53.252;5.788;2023-03-14T08:40:31;6.30;99.90
54124;DHT22;55741;53.252;5.788;2023-03-14T08:42:57;6.30;99.90
54124;DHT22;55741;53.252;5.788;2023-03-14T08:45:23;6.40;99.90
54124;DHT22;55741;53.252;5.788;2023-03-14T08:47:50;6.40;99.90
54124;DHT22;55741;53.252;5.788;2023-03-14T08:50:16;6.30;99.90
54124;DHT22;55741;53.252;5.788;2023-03-14T08:52:42;6.30;99.90
54124;DHT22;55741;53.252;5.788;2023-03-14T08:55:09;6.30;99.90
54124;DHT22;55741;53.252;5.788;2023-03-14T08:57:35;6.20;99.90
54124;DHT22;55741;53.252;5.788;2023-03-14T09:00:03;6.10;99.90
54124;DHT22;55741;53.252;5.788;2023-03-14T09:02:41;6.10;99.90
54124;DHT22;55741;53.252;5.788;2023-03-14T09:05:09;6.10;99.90
54124;DHT22;55741;53.252;5.788;2023-03-14T09:07:36;6.10;99.90
54124;DHT22;55741;53.252;5.788;2023-03-14T09:10:02;6.20;99.90
54124;DHT22;55741;53.252;5.788;2023-03-14T09:12:28;6.30;99.90
54124;DHT22;55741;53.252;5.788;2023-03-14T09:14:54;6.30;99.90
54124;DHT22;55741;53.252;5.788;2023-03-14T09:17:20;6.30;99.90
54124;DHT22;55741;53.252;5.788;2023-03-14T09:19:46;6.30;99.90
54124;DHT22;55741;53.252;5.788;2023-03-14T09:22:12;6.40;99.90
54124;DHT22;55741;53.252;5.788;2023-03-14T09:24:38;6.40;99.90
54124;DHT22;55741;53.252;5.788;2023-03-14T09:27:05;6.40;99.90
54124;DHT22;55741;53.252;5.788;2023-03-14T09:29:31;6.50;99.90
54124;DHT22;55741;53.252;5.788;2023-03-14T09:31:59;6.60;99.90
54124;DHT22;55741;53.252;5.788;2023-03-14T09:34:26;6.60;99.90
54124;DHT22;55741;53.252;5.788;2023-03-14T09:36:52;6.70;99.90
54124;DHT22;55741;53.252;5.788;2023-03-14T09:39:19;6.70;99.90
54124;DHT22;55741;53.252;5.788;2023-03-14T09:41:47;6.80;99.90
54124;DHT22;55741;53.252;5.788;2023-03-14T09:44:22;6.90;99.90
54124;DHT22;55741;53.252;5.788;2023-03-14T09:46:53;7.00;99.90
54124;DHT22;55741;53.252;5.788;2023-03-14T09:49:32;7.10;99.90
54124;DHT22;55741;53.252;5.788;2023-03-14T09:57:17;7.30;99.90
54124;DHT22;55741;53.252;5.788;2023-03-14T09:59:45;7.40;99.90
54124;DHT22;55741;53.252;5.788;2023-03-14T10:02:24;7.40;99.90
54124;DHT22;55741;53.252;5.788;2023-03-14T10:04:52;7.30;99.90
54124;DHT22;55741;53.252;5.788;2023-03-14T10:07:31;7.30;99.90
54124;DHT22;55741;53.252;5.788;2023-03-14T10:09:58;7.40;99.90
54124;DHT22;55741;53.252;5.788;2023-03-14T10:12:35;7.50;99.90
54124;DHT22;55741;53.252;5.788;2023-03-14T10:15:05;7.50;99.90
54124;DHT22;55741;53.252;5.788;2023-03-14T10:17:43;7.50;99.90
54124;DHT22;55741;53.252;5.788;2023-03-14T10:23:19;7.80;99.90
54124;DHT22;55741;53.252;5.788;2023-03-14T10:26:06;7.80;99.90
54124;DHT22;55741;53.252;5.788;2023-03-14T10:28:37;7.90;99.90
54124;DHT22;55741;53.252;5.788;2023-03-14T10:31:03;8.00;99.90
54124;DHT22;55741;53.252;5.788;2023-03-14T10:33:32;8.20;99.90
54124;DHT22;55741;53.252;5.788;2023-03-14T10:36:03;8.30;99.90
54124;DHT22;55741;53.252;5.788;2023-03-14T10:38:36;8.10;99.90
54124;DHT22;55741;53.252;5.788;2023-03-14T10:41:24;8.00;99.90
54124;DHT22;55741;53.252;5.788;2023-03-14T10:43:54;7.80;99.90
54124;DHT22;55741;53.252;5.788;2023-03-14T10:46:24;7.80;99.90
54124;DHT22;55741;53.252;5.788;2023-03-14T10:48:53;7.80;99.90
54124;DHT22;55741;53.252;5.788;2023-03-14T10:51:27;8.00;99.90
54124;DHT22;55741;53.252;5.788;2023-03-14T10:54:00;8.10;99.90
54124;DHT22;55741;53.252;5.788;2023-03-14T10:56:28;8.20;99.90
54124;DHT22;55741;53.252;5.788;2023-03-14T10:58:58;8.30;99.90
54124;DHT22;55741;53.252;5.788;2023-03-14T11:07:35;8.60;99.90
54124;DHT22;55741;53.252;5.788;2023-03-14T11:10:32;8.70;99.90
54124;DHT22;55741;53.252;5.788;2023-03-14T11:21:01;9.00;99.90
54124;DHT22;55741;53.252;5.788;2023-03-14T11:26:47;9.30;99.90
54124;DHT22;55741;53.252;5.788;2023-03-14T11:31:46;9.30;99.90
54124;DHT22;55741;53.252;5.788;2023-03-14T11:34:45;9.20;99.90
54124;DHT22;55741;53.252;5.788;2023-03-14T11:37:23;9.00;99.90
54124;DHT22;55741;53.252;5.788;2023-03-14T11:40:01;8.80;99.90
54124;DHT22;55741;53.252;5.788;2023-03-14T11:42:33;8.70;99.90
54124;DHT22;55741;53.252;5.788;2023-03-14T11:45:01;8.60;99.90
54124;DHT22;55741;53.252;5.788;2023-03-14T11:47:37;8.60;99.90
54124;DHT22;55741;53.252;5.788;2023-03-14T11:57:55;8.40;99.90
54124;DHT22;55741;53.252;5.788;2023-03-14T12:00:23;8.30;99.90
54124;DHT22;55741;53.252;5.788;2023-03-14T12:10:41;8.30;99.90
54124;DHT22;55741;53.252;5.788;2023-03-14T12:13:10;8.10;99.90
54124;DHT22;55741;53.252;5.788;2023-03-14T12:15:46;8.10;99.90
54124;DHT22;55741;53.252;5.788;2023-03-14T12:20:56;8.10;99.90
54124;DHT22;55741;53.252;5.788;2023-03-14T12:23:23;8.20;99.90
54124;DHT22;55741;53.252;5.788;2023-03-14T12:26:15;8.30;99.90
54124;DHT22;55741;53.252;5.788;2023-03-14T12:28:50;8.40;99.90
54124;DHT22;55741;53.252;5.788;2023-03-14T12:42:46;9.20;99.90
54124;DHT22;55741;53.252;5.788;2023-03-14T12:45:34;9.30;99.90
54124;DHT22;55741;53.252;5.788;2023-03-14T12:48:11;9.20;99.90
54124;DHT22;55741;53.252;5.788;2023-03-14T12:50:46;9.20;99.90
54124;DHT22;55741;53.252;5.788;2023-03-14T12:53:20;9.20;99.90
54124;DHT22;55741;53.252;5.788;2023-03-14T12:55:57;9.20;99.90
54124;DHT22;55741;53.252;5.788;2023-03-14T12:58:43;9.30;99.90
54124;DHT22;55741;53.252;5.788;2023-03-14T13:01:15;9.40;99.90
54124;DHT22;55741;53.252;5.788;2023-03-14T13:03:47;9.40;99.40
54124;DHT22;55741;53.252;5.788;2023-03-14T13:12:11;9.20;99.90
54124;DHT22;55741;53.252;5.788;2023-03-14T13:14:48;9.20;99.90
54124;DHT22;55741;53.252;5.788;2023-03-14T13:17:20;9.10;99.90
54124;DHT22;55741;53.252;5.788;2023-03-14T13:19:53;9.30;99.90
54124;DHT22;55741;53.252;5.788;2023-03-14T13:22:27;9.40;99.90
54124;DHT22;55741;53.252;5.788;2023-03-14T13:25:04;9.50;99.90
54124;DHT22;55741;53.252;5.788;2023-03-14T13:27:33;9.20;99.90
54124;DHT22;55741;53.252;5.788;2023-03-14T13:30:15;9.10;99.90
54124;DHT22;55741;53.252;5.788;2023-03-14T13:32:43;9.00;99.90
54124;DHT22;55741;53.252;5.788;2023-03-14T13:35:22;9.00;99.90
54124;DHT22;55741;53.252;5.788;2023-03-14T13:37:56;9.00;99.90
54124;DHT22;55741;53.252;5.788;2023-03-14T13:40:28;9.10;99.90
54124;DHT22;55741;53.252;5.788;2023-03-14T13:45:49;8.80;99.90
54124;DHT22;55741;53.252;5.788;2023-03-14T13:48:15;8.70;99.90
54124;DHT22;55741;53.252;5.788;2023-03-14T13:50:53;8.60;99.90
54124;DHT22;55741;53.252;5.788;2023-03-14T13:53:27;8.50;99.80
54124;DHT22;55741;53.252;5.788;2023-03-14T13:55:53;8.50;99.90
54124;DHT22;55741;53.252;5.788;2023-03-14T13:58:25;8.60;99.90
54124;DHT22;55741;53.252;5.788;2023-03-14T14:03:55;8.50;99.90
54124;DHT22;55741;53.252;5.788;2023-03-14T14:09:01;8.40;99.90
54124;DHT22;55741;53.252;5.788;2023-03-14T14:11:41;8.40;99.90
54124;DHT22;55741;53.252;5.788;2023-03-14T14:14:12;8.40;99.90
54124;DHT22;55741;53.252;5.788;2023-03-14T14:16:39;8.40;99.90
54124;DHT22;55741;53.252;5.788;2023-03-14T14:19:05;8.40;99.90
54124;DHT22;55741;53.252;5.788;2023-03-14T14:21:32;8.50;99.90
54124;DHT22;55741;53.252;5.788;2023-03-14T14:23:59;8.50;99.90
54124;DHT22;55741;53.252;5.788;2023-03-14T14:26:26;8.50;99.90
54124;DHT22;55741;53.252;5.788;2023-03-14T14:29:04;8.40;99.90
54124;DHT22;55741;53.252;5.788;2023-03-14T14:31:30;8.40;99.90
54124;DHT22;55741;53.252;5.788;2023-03-14T14:39:05;8.00;99.90
54124;DHT22;55741;53.252;5.788;2023-03-14T14:41:40;7.90;99.90
54124;DHT22;55741;53.252;5.788;2023-03-14T14:44:06;7.70;99.90
54124;DHT22;55741;53.252;5.788;2023-03-14T14:46:34;7.70;99.90
54124;DHT22;55741;53.252;5.788;2023-03-14T14:49:19;7.70;99.90
54124;DHT22;55741;53.252;5.788;2023-03-14T14:51:50;7.70;99.90
54124;DHT22;55741;53.252;5.788;2023-03-14T14:54:18;7.80;99.90
54124;DHT22;55741;53.252;5.788;2023-03-14T14:56:52;7.70;99.90
54124;DHT22;55741;53.252;5.788;2023-03-14T14:59:26;7.70;99.90
54124;DHT22;55741;53.252;5.788;2023-03-14T15:02:01;7.70;99.90
54124;DHT22;55741;53.252;5.788;2023-03-14T15:04:31;7.70;99.90
54124;DHT22;55741;53.252;5.788;2023-03-14T15:06:57;7.70;99.90
54124;DHT22;55741;53.252;5.788;2023-03-14T15:09:23;7.70;99.90
54124;DHT22;55741;53.252;5.788;2023-03-14T15:11:50;7.60;99.90
54124;DHT22;55741;53.252;5.788;2023-03-14T15:14:15;7.40;99.90
54124;DHT22;55741;53.252;5.788;2023-03-14T15:16:41;7.30;99.90
54124;DHT22;55741;53.252;5.788;2023-03-14T15:19:23;7.20;99.90
54124;DHT22;55741;53.252;5.788;2023-03-14T15:21:51;7.00;99.90
54124;DHT22;55741;53.252;5.788;2023-03-14T15:24:17;6.90;99.90
54124;DHT22;55741;53.252;5.788;2023-03-14T15:26:43;6.80;99.90
54124;DHT22;55741;53.252;5.788;2023-03-14T15:29:11;6.80;99.90
54124;DHT22;55741;53.252;5.788;2023-03-14T15:31:40;6.80;99.90
54124;DHT22;55741;53.252;5.788;2023-03-14T15:34:06;6.90;99.90
54124;DHT22;55741;53.252;5.788;2023-03-14T15:36:34;6.90;99.90
54124;DHT22;55741;53.252;5.788;2023-03-14T15:39:02;6.90;99.90
54124;DHT22;55741;53.252;5.788;2023-03-14T15:41:28;6.90;99.90
54124;DHT22;55741;53.252;5.788;2023-03-14T15:43:56;6.90;99.90
54124;DHT22;55741;53.252;5.788;2023-03-14T15:46:22;7.00;99.90
54124;DHT22;55741;53.252;5.788;2023-03-14T15:48:49;7.00;99.90
54124;DHT22;55741;53.252;5.788;2023-03-14T15:51:15;7.00;99.90
54124;DHT22;55741;53.252;5.788;2023-03-14T15:53:41;7.00;99.90
54124;DHT22;55741;53.252;5.788;2023-03-14T15:56:14;7.00;99.90
54124;DHT22;55741;53.252;5.788;2023-03-14T15:58:41;7.00;99.90
54124;DHT22;55741;53.252;5.788;2023-03-14T16:01:08;7.00;99.90
54124;DHT22;55741;53.252;5.788;2023-03-14T16:03:37;6.90;99.90
54124;DHT22;55741;53.252;5.788;2023-03-14T16:06:04;6.90;99.90
54124;DHT22;55741;53.252;5.788;2023-03-14T16:08:30;6.80;99.90
54124;DHT22;55741;53.252;5.788;2023-03-14T16:10:58;6.80;99.90
54124;DHT22;55741;53.252;5.788;2023-03-14T16:13:24;6.70;99.90
54124;DHT22;55741;53.252;5.788;2023-03-14T16:15:55;6.70;99.90
54124;DHT22;55741;53.252;5.788;2023-03-14T16:18:21;6.60;99.90
54124;DHT22;55741;53.252;5.788;2023-03-14T16:20:56;6.50;99.90
54124;DHT22;55741;53.252;5.788;2023-03-14T16:23:22;6.40;99.90
54124;DHT22;55741;53.252;5.788;2023-03-14T16:25:48;6.40;99.90
54124;DHT22;55741;53.252;5.788;2023-03-14T16:28:14;6.30;99.90
54124;DHT22;55741;53.252;5.788;2023-03-14T16:30:41;6.30;99.90
54124;DHT22;55741;53.252;5.788;2023-03-14T16:33:07;6.20;99.90
54124;DHT22;55741;53.252;5.788;2023-03-14T16:35:36;6.20;99.90
54124;DHT22;55741;53.252;5.788;2023-03-14T16:38:03;6.10;99.90
54124;DHT22;55741;53.252;5.788;2023-03-14T16:40:30;6.10;99.90
54124;DHT22;55741;53.252;5.788;2023-03-14T16:42:56;6.10;99.90
54124;DHT22;55741;53.252;5.788;2023-03-14T16:45:23;6.00;99.90
54124;DHT22;55741;53.252;5.788;2023-03-14T16:47:49;5.80;99.90
54124;DHT22;55741;53.252;5.788;2023-03-14T16:50:17;5.70;99.90
54124;DHT22;55741;53.252;5.788;2023-03-14T16:52:43;5.60;99.90
54124;DHT22;55741;53.252;5.788;2023-03-14T16:55:11;5.60;99.90
54124;DHT22;55741;53.252;5.788;2023-03-14T16:57:37;5.50;99.90
54124;DHT22;55741;53.252;5.788;2023-03-14T17:00:03;5.40;99.90
54124;DHT22;55741;53.252;5.788;2023-03-14T17:02:50;5.40;99.90
54124;DHT22;55741;53.252;5.788;2023-03-14T17:05:16;5.40;99.90
54124;DHT22;55741;53.252;5.788;2023-03-14T17:07:41;5.40;99.90
54124;DHT22;55741;53.252;5.788;2023-03-14T17:10:08;5.40;99.90
54124;DHT22;55741;53.252;5.788;2023-03-14T17:12:35;5.30;99.90
54124;DHT22;55741;53.252;5.788;2023-03-14T17:15:01;5.30;99.90
54124;DHT22;55741;53.252;5.788;2023-03-14T17:17:27;5.20;99.90
54124;DHT22;55741;53.252;5.788;2023-03-14T17:19:53;5.10;99.90